Time;durP1;ratioP1;P1;durP2;ratioP2;P2;SDS_P1;SDS_P2;PMS_P1;PMS_P2;Temp;Humidity;BMP_temperature;BMP_pressure;BME280_temperature;BME280_humidity;BME280_pressure;Samples;Min_cycle;Max_cycle;Signal;HPM_P1;HPM_P2
2022/05/31 00:01:57;;;;;;;4.70;1.60;;;;;;;8.31;100.00;96316.22;5017515;28;20056;-72
2022/05/31 00:04:22;;;;;;;6.30;1.83;;;;;;;8.30;100.00;96309.28;5013249;28;20160;-72
2022/05/31 00:06:48;;;;;;;4.07;1.60;;;;;;;8.16;100.00;96315.13;5015437;28;20490;-72
2022/05/31 00:09:14;;;;;;;5.03;1.42;;;;;;;7.99;100.00;96315.88;5030982;28;20084;-72
2022/05/31 00:11:41;;;;;;;7.05;1.20;;;;;;;7.93;100.00;96308.00;5015265;28;20488;-71
2022/05/31 00:14:07;;;;;;;6.20;1.65;;;;;;;7.98;100.00;96308.13;5014426;28;20492;-72
2022/05/31 00:16:33;;;;;;;3.28;1.27;;;;;;;8.16;100.00;96307.13;5014588;28;20053;-72
2022/05/31 00:18:59;;;;;;;6.50;1.50;;;;;;;8.13;100.00;96304.94;5015976;28;20383;-72
2022/05/31 00:22:02;;;;;;;5.93;1.20;;;;;;;8.00;100.00;96309.50;5019860;28;20106;-72
2022/05/31 00:24:28;;;;;;;7.20;1.50;;;;;;;8.08;100.00;96302.97;5011172;28;20350;-74
2022/05/31 00:26:53;;;;;;;6.10;1.48;;;;;;;8.07;100.00;96294.19;5014368;28;20041;-72
2022/05/31 00:29:19;;;;;;;7.80;1.50;;;;;;;7.99;100.00;96288.41;5011392;28;20109;-72
2022/05/31 00:31:47;;;;;;;5.25;1.50;;;;;;;8.09;100.00;96304.59;5029122;28;20052;-72
2022/05/31 00:34:15;;;;;;;6.97;1.73;;;;;;;8.04;100.00;96304.50;5028666;28;20120;-72
2022/05/31 00:36:43;;;;;;;4.88;1.50;;;;;;;8.00;100.00;96301.50;5013054;28;20643;-71
2022/05/31 00:39:09;;;;;;;3.95;1.40;;;;;;;8.06;100.00;96303.22;5014271;28;20041;-74
2022/05/31 00:41:39;;;;;;;7.82;1.65;;;;;;;8.08;100.00;96306.44;5016875;28;20048;-71
2022/05/31 00:44:16;;;;;;;4.20;1.67;;;;;;;8.05;100.00;96311.47;5015357;28;20492;-74
2022/05/31 00:46:46;;;;;;;6.40;1.63;;;;;;;7.92;100.00;96309.03;5014777;28;20059;-74
2022/05/31 00:49:31;;;;;;;7.63;1.57;;;;;;;7.93;100.00;96310.66;5006573;28;20068;-74
2022/05/31 00:52:00;;;;;;;5.22;1.40;;;;;;;7.85;100.00;96314.50;5014308;28;20574;-73
2022/05/31 00:54:30;;;;;;;4.55;1.70;;;;;;;7.95;100.00;96313.94;5011672;28;20420;-72
2022/05/31 00:56:57;;;;;;;5.65;1.60;;;;;;;7.85;100.00;96308.38;5007190;28;20503;-72
2022/05/31 00:59:46;;;;;;;4.47;1.30;;;;;;;7.79;100.00;96310.13;5011735;28;20038;-75
2022/05/31 01:02:12;;;;;;;5.75;1.50;;;;;;;7.69;100.00;96312.56;5014185;28;20057;-72
2022/05/31 01:04:42;;;;;;;4.20;1.50;;;;;;;7.64;100.00;96309.81;5016369;28;20128;-72
2022/05/31 01:07:08;;;;;;;5.22;1.20;;;;;;;7.63;100.00;96318.84;5015467;28;20045;-72
2022/05/31 01:09:34;;;;;;;4.50;1.58;;;;;;;7.62;100.00;96317.19;4995313;28;20095;-72
2022/05/31 01:12:22;;;;;;;6.75;1.50;;;;;;;7.57;100.00;96309.09;5014210;28;20108;-72
2022/05/31 01:15:08;;;;;;;6.63;1.52;;;;;;;7.59;100.00;96309.69;5013385;28;20545;-73
2022/05/31 01:17:52;;;;;;;5.72;1.52;;;;;;;7.73;100.00;96314.53;5015612;28;20038;-73
2022/05/31 01:20:26;;;;;;;4.57;1.70;;;;;;;7.81;100.00;96311.50;5016451;28;20269;-72
2022/05/31 01:23:05;;;;;;;3.47;1.40;;;;;;;7.87;100.00;96306.28;5008943;28;20045;-71
2022/05/31 01:25:56;;;;;;;5.38;1.40;;;;;;;7.98;100.00;96316.91;5014918;28;20317;-72
2022/05/31 01:28:37;;;;;;;5.53;1.60;;;;;;;7.92;100.00;96307.19;5011257;28;20072;-75
2022/05/31 01:31:10;;;;;;;4.07;1.77;;;;;;;8.04;100.00;96310.66;5016286;28;20666;-72
2022/05/31 01:33:49;;;;;;;4.45;1.50;;;;;;;7.97;100.00;96306.50;5012539;28;20350;-74
2022/05/31 01:36:22;;;;;;;3.40;1.40;;;;;;;8.08;100.00;96297.66;5015479;28;20469;-72
2022/05/31 01:39:00;;;;;;;6.20;1.40;;;;;;;8.15;100.00;96300.19;5029957;28;20582;-72
2022/05/31 01:41:40;;;;;;;3.55;1.25;;;;;;;8.17;100.00;96304.25;5017906;28;20088;-72
2022/05/31 01:44:16;;;;;;;3.15;1.30;;;;;;;8.34;100.00;96298.97;5011772;28;20042;-72
2022/05/31 01:46:43;;;;;;;2.58;1.30;;;;;;;8.27;100.00;96296.44;5006062;28;20164;-72
2022/05/31 01:49:13;;;;;;;4.75;1.40;;;;;;;8.32;100.00;96291.19;5025789;28;20056;-73
2022/05/31 01:51:40;;;;;;;4.72;1.45;;;;;;;8.36;100.00;96292.38;5013409;28;20045;-73
2022/05/31 01:54:08;;;;;;;4.53;1.40;;;;;;;8.32;100.00;96290.38;5013166;28;20044;-75
2022/05/31 01:56:35;;;;;;;5.07;1.40;;;;;;;8.35;100.00;96284.63;5031761;28;20047;-72
2022/05/31 01:59:03;;;;;;;4.95;1.30;;;;;;;8.34;100.00;96282.97;5028471;28;20045;-73
2022/05/31 02:01:31;;;;;;;5.63;1.70;;;;;;;8.46;100.00;96277.63;4998723;28;20046;-73
2022/05/31 02:03:59;;;;;;;4.70;1.48;;;;;;;8.48;100.00;96286.16;5029714;28;20107;-72
2022/05/31 02:06:38;;;;;;;2.70;1.25;;;;;;;8.42;100.00;96279.97;5013212;28;20033;-71
2022/05/31 02:09:06;;;;;;;3.95;1.50;;;;;;;8.35;100.00;96274.78;5030566;28;20084;-72
2022/05/31 02:11:35;;;;;;;5.38;1.40;;;;;;;8.47;100.00;96272.03;5027455;28;20044;-71
2022/05/31 02:14:18;;;;;;;4.75;1.40;;;;;;;8.40;100.00;96273.22;5027671;28;20507;-72
2022/05/31 02:16:44;;;;;;;4.22;1.38;;;;;;;8.37;100.00;96280.66;5013270;28;20647;-72
2022/05/31 02:19:30;;;;;;;4.43;1.30;;;;;;;8.30;100.00;96279.16;5011219;28;20571;-73
2022/05/31 02:22:07;;;;;;;5.35;1.15;;;;;;;8.35;100.00;96276.63;4996735;28;20078;-74
2022/05/31 02:24:32;;;;;;;3.67;1.23;;;;;;;8.41;100.00;96275.69;4997682;28;20038;-74
2022/05/31 02:27:00;;;;;;;4.55;1.25;;;;;;;8.51;100.00;96269.72;4995203;28;20096;-74
2022/05/31 02:29:32;;;;;;;3.03;1.20;;;;;;;8.52;100.00;96266.00;5027412;28;20919;-71
2022/05/31 02:32:00;;;;;;;3.45;1.42;;;;;;;8.54;100.00;96266.56;4996918;28;20081;-72
2022/05/31 02:34:29;;;;;;;4.70;1.27;;;;;;;8.52;100.00;96266.00;5031868;28;20085;-71
2022/05/31 02:36:55;;;;;;;7.68;1.30;;;;;;;8.49;100.00;96267.28;5000108;28;20041;-72
2022/05/31 02:39:21;;;;;;;2.53;1.10;;;;;;;8.45;100.00;96268.81;5027362;28;20034;-72
2022/05/31 02:41:48;;;;;;;5.60;1.33;;;;;;;8.43;100.00;96265.56;5029358;28;20124;-74
2022/05/31 02:44:18;;;;;;;4.95;1.00;;;;;;;8.37;100.00;96258.53;4994548;28;20481;-75
2022/05/31 02:46:44;;;;;;;4.32;1.30;;;;;;;8.33;100.00;96260.84;5030623;28;20069;-72
2022/05/31 02:49:10;;;;;;;4.30;1.35;;;;;;;8.30;100.00;96260.50;5027376;28;20037;-72
2022/05/31 02:51:42;;;;;;;3.85;1.23;;;;;;;8.19;100.00;96264.03;4998330;28;20053;-74
2022/05/31 02:54:10;;;;;;;2.35;1.10;;;;;;;8.16;100.00;96253.81;5005756;28;20144;-72
2022/05/31 02:56:54;;;;;;;4.30;1.23;;;;;;;8.15;100.00;96246.88;5001020;28;20030;-72
2022/05/31 02:59:46;;;;;;;3.33;1.17;;;;;;;8.19;100.00;96251.50;4979218;28;20058;-72
2022/05/31 03:02:38;;;;;;;5.88;1.27;;;;;;;8.21;100.00;96252.06;4984287;28;20053;-72
2022/05/31 03:05:22;;;;;;;3.05;1.17;;;;;;;8.13;100.00;96249.78;4997095;28;20108;-72
2022/05/31 03:08:07;;;;;;;5.90;2.15;;;;;;;7.99;100.00;96243.91;4996619;28;20124;-71
2022/05/31 03:10:50;;;;;;;6.20;1.80;;;;;;;7.90;100.00;96242.69;5028677;28;20041;-72
2022/05/31 03:13:22;;;;;;;4.97;1.40;;;;;;;7.86;100.00;96241.56;4997490;28;20409;-72
2022/05/31 03:15:48;;;;;;;4.45;1.35;;;;;;;7.80;100.00;96247.81;5029997;28;20111;-73
2022/05/31 03:18:19;;;;;;;3.35;1.48;;;;;;;7.77;100.00;96245.59;4994298;28;20039;-73
2022/05/31 03:20:54;;;;;;;3.78;1.30;;;;;;;7.82;100.00;96245.72;4996516;28;20092;-73
2022/05/31 03:23:25;;;;;;;4.45;1.20;;;;;;;7.80;100.00;96251.28;5009854;28;20454;-74
2022/05/31 03:25:53;;;;;;;3.42;1.00;;;;;;;7.79;100.00;96248.88;5030950;28;20034;-71
2022/05/31 03:28:20;;;;;;;2.70;1.00;;;;;;;7.79;100.00;96254.19;5031996;28;20325;-71
2022/05/31 03:30:46;;;;;;;4.55;1.10;;;;;;;7.79;100.00;96248.88;5013713;28;20416;-73
2022/05/31 03:33:12;;;;;;;4.03;1.23;;;;;;;7.69;100.00;96248.63;5003109;28;20045;-72
2022/05/31 03:35:38;;;;;;;4.68;1.40;;;;;;;7.77;100.00;96250.94;5030888;28;20400;-73
2022/05/31 03:38:12;;;;;;;4.55;1.27;;;;;;;7.83;100.00;96242.00;5028388;28;20514;-73
2022/05/31 03:40:56;;;;;;;2.80;1.02;;;;;;;7.75;100.00;96242.38;5003918;28;20041;-71
2022/05/31 03:43:26;;;;;;;2.63;1.10;;;;;;;7.73;100.00;96233.81;5014772;28;20030;-72
2022/05/31 03:46:18;;;;;;;4.18;1.35;;;;;;;7.80;100.00;96237.16;4988901;28;20056;-73
2022/05/31 03:49:02;;;;;;;4.38;1.30;;;;;;;7.86;100.00;96241.56;5015523;28;20134;-74
2022/05/31 03:51:37;;;;;;;2.95;1.20;;;;;;;7.90;100.00;96234.69;5014987;28;20148;-75
2022/05/31 03:54:11;;;;;;;2.78;1.20;;;;;;;7.84;100.00;96230.31;5027702;28;20048;-72
2022/05/31 03:56:56;;;;;;;3.45;1.30;;;;;;;7.73;100.00;96228.50;5018255;28;20103;-72
2022/05/31 03:59:21;;;;;;;4.68;1.27;;;;;;;7.68;100.00;96236.38;5030510;28;20045;-73
2022/05/31 04:01:47;;;;;;;4.60;1.60;;;;;;;7.53;100.00;96235.00;4998688;28;20056;-72
2022/05/31 04:04:12;;;;;;;2.47;1.10;;;;;;;7.36;100.00;96228.78;4994699;28;20050;-72
2022/05/31 04:06:38;;;;;;;4.20;1.20;;;;;;;7.23;100.00;96237.00;5029779;28;20059;-73
2022/05/31 04:09:05;;;;;;;2.97;1.10;;;;;;;7.12;100.00;96235.16;5004854;28;20498;-72
2022/05/31 04:11:31;;;;;;;3.88;1.23;;;;;;;7.06;100.00;96234.22;5002297;28;20042;-73
2022/05/31 04:14:01;;;;;;;5.38;1.50;;;;;;;7.12;100.00;96232.50;5015111;28;20045;-72
2022/05/31 04:16:41;;;;;;;5.13;1.60;;;;;;;7.14;100.00;96230.41;5013515;28;20248;-72
2022/05/31 04:19:09;;;;;;;4.65;1.60;;;;;;;7.23;100.00;96234.34;5028121;28;20072;-74
2022/05/31 04:21:38;;;;;;;6.15;1.15;;;;;;;7.25;100.00;96230.44;4995761;28;20084;-73
2022/05/31 04:24:08;;;;;;;3.75;1.58;;;;;;;7.33;100.00;96218.63;4995248;28;20424;-72
2022/05/31 04:26:43;;;;;;;3.15;1.27;;;;;;;7.42;100.00;96224.38;5019038;28;20113;-72
2022/05/31 04:29:27;;;;;;;2.33;1.10;;;;;;;7.44;100.00;96219.63;5017962;28;20046;-73
2022/05/31 04:32:13;;;;;;;2.55;1.17;;;;;;;7.49;100.00;96223.22;5015745;28;20037;-74
2022/05/31 04:34:56;;;;;;;2.55;1.08;;;;;;;7.42;100.00;96222.53;5013262;28;20496;-72
2022/05/31 04:37:22;;;;;;;3.88;1.40;;;;;;;7.44;100.00;96225.75;5011074;28;20128;-73
2022/05/31 04:40:10;;;;;;;4.30;1.70;;;;;;;7.49;100.00;96228.53;5012004;28;20034;-72
2022/05/31 04:42:42;;;;;;;3.30;1.40;;;;;;;7.51;100.00;96230.97;5018005;28;20037;-72
2022/05/31 04:45:12;;;;;;;2.40;1.02;;;;;;;7.64;100.00;96222.72;5028546;28;20171;-72
2022/05/31 04:47:38;;;;;;;3.58;1.30;;;;;;;7.66;100.00;96220.63;5014601;28;20387;-72
2022/05/31 04:50:05;;;;;;;4.45;1.10;;;;;;;7.65;100.00;96220.88;5026072;28;20037;-72
2022/05/31 04:52:34;;;;;;;4.07;1.45;;;;;;;7.75;100.00;96226.41;5009893;28;20077;-71
2022/05/31 04:55:01;;;;;;;5.57;1.40;;;;;;;7.83;100.00;96218.03;5000644;28;20045;-72
2022/05/31 04:57:48;;;;;;;4.43;1.20;;;;;;;8.00;100.00;96218.09;5031207;28;20172;-71
2022/05/31 05:00:14;;;;;;;4.93;1.35;;;;;;;8.05;100.00;96213.66;5014171;28;20050;-72
2022/05/31 05:02:54;;;;;;;3.47;1.10;;;;;;;8.19;100.00;96213.38;5028097;28;20034;-74
2022/05/31 05:05:19;;;;;;;2.50;1.00;;;;;;;8.30;100.00;96217.84;5014430;28;20047;-74
2022/05/31 05:07:48;;;;;;;2.33;1.08;;;;;;;8.42;100.00;96213.28;4999408;28;20547;-72
2022/05/31 05:10:14;;;;;;;3.65;1.23;;;;;;;8.59;100.00;96216.78;5029383;28;20045;-72
2022/05/31 05:12:49;;;;;;;3.45;1.20;;;;;;;8.77;100.00;96222.94;5028133;28;20045;-72
2022/05/31 05:15:39;;;;;;;3.40;1.42;;;;;;;8.95;100.00;96212.03;5005479;28;20050;-72
2022/05/31 05:18:05;;;;;;;2.80;1.10;;;;;;;9.04;100.00;96213.22;5028279;28;20282;-72
2022/05/31 05:20:34;;;;;;;2.08;0.95;;;;;;;9.24;100.00;96217.22;4995590;28;20072;-72
2022/05/31 05:23:00;;;;;;;5.68;1.27;;;;;;;9.38;100.00;96221.97;5030488;28;20062;-73
2022/05/31 05:25:25;;;;;;;6.35;1.35;;;;;;;9.47;100.00;96217.03;4993406;28;20072;-71
2022/05/31 05:27:58;;;;;;;5.00;1.38;;;;;;;9.60;100.00;96210.53;5029901;28;20049;-71
2022/05/31 05:30:40;;;;;;;4.50;1.73;;;;;;;9.75;100.00;96208.84;5011645;28;20124;-73
2022/05/31 05:33:35;;;;;;;3.22;1.20;;;;;;;9.59;100.00;96209.72;5009017;28;20045;-72
2022/05/31 05:36:26;;;;;;;2.85;1.00;;;;;;;9.59;100.00;96198.22;5031335;28;20048;-72
2022/05/31 05:38:52;;;;;;;3.08;1.27;;;;;;;9.66;100.00;96205.00;5030058;28;20044;-72
2022/05/31 05:41:57;;;;;;;4.85;1.17;;;;;;;9.59;100.00;96203.56;5013549;28;20121;-72
2022/05/31 05:44:59;;;;;;;;;;;;;;;9.70;100.00;96206.09;4958100;28;20074;-75
2022/05/31 05:47:25;;;;;;;4.40;1.20;;;;;;;9.64;100.00;96208.94;5002581;28;20510;-72
2022/05/31 05:49:52;;;;;;;2.47;0.93;;;;;;;9.67;100.00;96195.91;5000137;28;20052;-72
2022/05/31 05:52:48;;;;;;;4.57;1.38;;;;;;;9.74;100.00;96199.22;4996079;28;20123;-72
2022/05/31 05:55:35;;;;;;;2.92;1.00;;;;;;;9.82;100.00;96202.50;5013403;28;20138;-72
2022/05/31 05:58:27;;;;;;;4.47;1.20;;;;;;;9.89;100.00;96195.13;5003043;28;20492;-72
2022/05/31 06:01:34;;;;;;;3.13;1.10;;;;;;;9.91;100.00;96193.00;4990406;28;20040;-74
2022/05/31 06:04:21;;;;;;;2.35;0.85;;;;;;;9.94;100.00;96189.81;5036755;28;20030;-72
2022/05/31 06:07:03;;;;;;;2.13;1.10;;;;;;;9.94;100.00;96192.47;5034564;28;20535;-72
2022/05/31 06:09:32;;;;;;;;;;;;;;;10.03;100.00;96188.28;5018085;28;20401;-73
2022/05/31 06:12:11;;;;;;;2.67;1.05;;;;;;;10.15;100.00;96183.63;5017168;28;19917;-74
2022/05/31 06:14:50;;;;;;;2.53;1.08;;;;;;;10.32;100.00;96192.38;4996350;28;20098;-74
2022/05/31 06:17:31;;;;;;;3.80;1.15;;;;;;;10.37;100.00;96194.31;5034354;28;20044;-72
2022/05/31 06:20:01;;;;;;;3.00;1.25;;;;;;;10.56;100.00;96197.41;5002282;28;20045;-73
2022/05/31 06:22:28;;;;;;;1.90;0.85;;;;;;;10.66;100.00;96189.47;5018539;28;20101;-73
2022/05/31 06:25:09;;;;;;;2.28;1.05;;;;;;;10.74;100.00;96183.66;5016587;28;20034;-73
2022/05/31 06:27:53;;;;;;;2.70;1.00;;;;;;;10.79;100.00;96178.31;5035463;28;20038;-74
2022/05/31 06:30:19;;;;;;;3.92;1.10;;;;;;;10.91;100.00;96182.72;5034950;28;20073;-71
2022/05/31 06:32:45;;;;;;;3.80;1.60;;;;;;;11.01;100.00;96172.88;5003230;28;20504;-71
2022/05/31 06:35:11;;;;;;;3.83;1.10;;;;;;;11.06;100.00;96177.47;5035220;28;20041;-72
2022/05/31 06:37:57;;;;;;;3.35;1.05;;;;;;;11.07;100.00;96184.44;5016085;28;20053;-72
2022/05/31 06:40:22;;;;;;;3.72;1.10;;;;;;;11.15;100.00;96178.59;5031955;28;20502;-72
2022/05/31 06:43:08;;;;;;;3.10;1.05;;;;;;;11.16;100.00;96183.69;5015847;28;20408;-73
2022/05/31 06:46:07;;;;;;;2.20;1.02;;;;;;;11.29;100.00;96174.38;5000493;28;20144;-73
2022/05/31 06:48:33;;;;;;;2.53;1.00;;;;;;;11.35;100.00;96176.00;5020101;28;20211;-72
2022/05/31 06:51:10;;;;;;;3.83;1.10;;;;;;;11.39;100.00;96171.75;5017249;28;20164;-72
2022/05/31 06:56:50;;;;;;;3.53;1.13;;;;;;;11.68;100.00;96171.34;5019808;28;20033;-72
2022/05/31 06:59:28;;;;;;;2.55;0.90;;;;;;;11.81;100.00;96170.06;5011437;28;20897;-72
2022/05/31 07:02:03;;;;;;;2.90;1.15;;;;;;;11.83;100.00;96168.78;5019665;28;20048;-73
2022/05/31 07:04:31;;;;;;;2.40;0.90;;;;;;;11.84;100.00;96170.38;5002816;28;20034;-74
2022/05/31 07:06:57;;;;;;;3.03;1.60;;;;;;;11.95;100.00;96172.00;5020172;28;20033;-72
2022/05/31 07:09:41;;;;;;;3.00;1.10;;;;;;;12.02;100.00;96160.22;5017920;28;20377;-72
2022/05/31 07:12:21;;;;;;;2.20;0.90;;;;;;;12.05;100.00;96171.22;5029410;28;20037;-72
2022/05/31 07:14:47;;;;;;;3.58;1.30;;;;;;;12.16;100.00;96169.38;5017130;28;20034;-72
2022/05/31 07:17:46;;;;;;;2.42;0.90;;;;;;;12.19;100.00;96171.53;4979227;28;20096;-72
2022/05/31 07:20:13;;;;;;;2.75;0.63;;;;;;;12.14;100.00;96169.66;5012626;28;20148;-73
2022/05/31 07:22:39;;;;;;;2.75;1.00;;;;;;;12.21;100.00;96167.50;5014952;28;20156;-73
2022/05/31 07:25:23;;;;;;;3.15;0.80;;;;;;;12.33;100.00;96166.47;5018044;28;20052;-72
2022/05/31 07:27:55;;;;;;;1.65;0.80;;;;;;;12.44;100.00;96174.25;5029583;28;20484;-72
2022/05/31 07:30:21;;;;;;;2.92;1.00;;;;;;;12.56;100.00;96163.25;5005811;28;20040;-72
2022/05/31 07:32:47;;;;;;;3.50;1.10;;;;;;;12.72;100.00;96164.88;5005816;28;20054;-73
2022/05/31 07:35:13;;;;;;;4.40;1.02;;;;;;;12.81;100.00;96160.56;5031430;28;20041;-73
2022/05/31 07:37:39;;;;;;;3.65;0.93;;;;;;;12.92;100.00;96164.06;5032002;28;20044;-73
2022/05/31 07:40:05;;;;;;;2.30;1.15;;;;;;;12.89;100.00;96158.41;5004798;28;20076;-73
2022/05/31 07:42:32;;;;;;;3.10;1.23;;;;;;;12.97;100.00;96160.56;5028533;28;20056;-73
2022/05/31 07:44:59;;;;;;;3.72;1.27;;;;;;;12.91;100.00;96162.44;5030584;28;20050;-73
2022/05/31 07:47:25;;;;;;;2.70;1.35;;;;;;;13.04;100.00;96163.78;5018709;28;20139;-72
2022/05/31 07:49:51;;;;;;;3.10;1.40;;;;;;;13.11;100.00;96165.09;5022117;28;20144;-73
2022/05/31 07:52:38;;;;;;;4.78;0.90;;;;;;;13.04;100.00;96156.53;4985434;28;20088;-73
2022/05/31 07:55:22;;;;;;;2.53;1.10;;;;;;;13.20;100.00;96167.28;5016779;28;20042;-73
2022/05/31 07:58:33;;;;;;;2.08;0.77;;;;;;;13.30;100.00;96169.94;5010568;28;20057;-72
2022/05/31 08:01:22;;;;;;;2.40;1.00;;;;;;;13.46;100.00;96166.13;5015429;28;20041;-73
2022/05/31 08:03:48;;;;;;;2.30;0.90;;;;;;;13.46;100.00;96155.38;5016708;28;20049;-73
2022/05/31 08:06:17;;;;;;;3.63;1.20;;;;;;;13.54;100.00;96157.53;4987335;28;20159;-73
2022/05/31 08:08:44;;;;;;;4.45;1.17;;;;;;;13.72;100.00;96152.59;5019800;28;20485;-73
2022/05/31 08:11:13;;;;;;;1.98;0.80;;;;;;;13.76;100.00;96156.34;5015609;28;20523;-74
2022/05/31 08:13:39;;;;;;;5.93;0.90;;;;;;;13.64;100.00;96151.28;5030127;28;20468;-72
2022/05/31 08:16:06;;;;;;;3.88;1.00;;;;;;;13.96;100.00;96148.19;5015817;28;20049;-70
2022/05/31 08:18:33;;;;;;;2.67;1.00;;;;;;;13.79;100.00;96155.81;5019107;28;20037;-70
2022/05/31 08:21:05;;;;;;;3.13;1.00;;;;;;;13.79;99.78;96142.38;5014782;28;20052;-70
2022/05/31 08:23:31;;;;;;;4.80;0.93;;;;;;;13.75;99.59;96150.16;5020878;28;20034;-71
2022/05/31 08:25:58;;;;;;;1.83;0.90;;;;;;;13.76;98.29;96135.63;5017399;28;20059;-71
2022/05/31 08:28:24;;;;;;;11.95;1.50;;;;;;;13.89;100.00;96139.63;5016040;28;20052;-70
2022/05/31 08:30:53;;;;;;;2.45;0.90;;;;;;;13.85;100.00;96139.38;5015885;28;20521;-70
2022/05/31 08:33:19;;;;;;;2.25;0.98;;;;;;;14.02;100.00;96139.03;5030374;28;20050;-71
2022/05/31 08:35:44;;;;;;;5.97;1.10;;;;;;;14.24;100.00;96135.94;5015146;28;20064;-71
2022/05/31 08:38:10;;;;;;;2.58;1.08;;;;;;;14.29;100.00;96127.00;5015169;28;20046;-71
2022/05/31 08:40:47;;;;;;;2.25;0.90;;;;;;;14.23;98.50;96124.34;5016318;28;20463;-71
2022/05/31 08:43:17;;;;;;;4.65;0.98;;;;;;;14.31;100.00;96122.94;5012577;28;20073;-70
2022/05/31 08:45:53;;;;;;;2.38;0.90;;;;;;;14.42;100.00;96123.69;5016484;28;20345;-70
2022/05/31 08:48:32;;;;;;;2.63;1.00;;;;;;;14.53;100.00;96127.94;5020089;28;20146;-71
2022/05/31 08:57:01;;;;;;;3.45;1.10;;;;;;;15.04;96.10;96130.19;5031593;28;20045;-71
2022/05/31 08:59:51;;;;;;;3.03;1.17;;;;;;;15.22;100.00;96131.34;4996986;28;20041;-71
2022/05/31 09:02:22;;;;;;;3.00;1.10;;;;;;;15.23;100.00;96133.75;5016134;28;20057;-70
2022/05/31 09:04:59;;;;;;;3.45;1.10;;;;;;;15.64;100.00;96121.72;5012972;28;20520;-71
2022/05/31 09:07:34;;;;;;;3.13;1.10;;;;;;;15.95;96.72;96122.13;4996914;28;20511;-70
2022/05/31 09:10:17;;;;;;;3.70;1.17;;;;;;;16.09;100.00;96123.84;5020098;28;20406;-70
2022/05/31 09:13:02;;;;;;;3.30;1.20;;;;;;;16.66;88.83;96126.50;5017328;28;20049;-71
2022/05/31 09:15:46;;;;;;;3.50;1.17;;;;;;;17.43;89.86;96124.09;5014822;28;20259;-71
2022/05/31 09:18:23;;;;;;;3.35;1.20;;;;;;;18.01;89.00;96120.78;5012273;28;20049;-71
2022/05/31 09:20:53;;;;;;;3.92;1.30;;;;;;;18.13;88.00;96116.72;5019500;28;20042;-71
2022/05/31 09:23:21;;;;;;;4.95;1.45;;;;;;;17.53;80.76;96126.59;5012236;28;20061;-70
2022/05/31 09:26:03;;;;;;;3.45;1.20;;;;;;;17.45;100.00;96124.59;5032245;28;20037;-71
2022/05/31 09:28:37;;;;;;;4.55;1.23;;;;;;;17.18;77.21;96135.38;5012259;28;20444;-71
2022/05/31 09:31:18;;;;;;;4.90;1.27;;;;;;;17.44;80.83;96122.19;5017004;28;20580;-72
2022/05/31 09:34:07;;;;;;;2.25;1.05;;;;;;;16.83;81.23;96123.28;5018311;28;20111;-71
2022/05/31 09:36:44;;;;;;;3.03;1.15;;;;;;;16.61;81.37;96123.88;4993041;28;20447;-71
2022/05/31 09:39:24;;;;;;;3.40;1.33;;;;;;;17.13;81.46;96130.06;5015817;28;20034;-71
2022/05/31 09:42:00;;;;;;;2.83;1.17;;;;;;;17.94;82.91;96119.59;5021914;28;20041;-70
2022/05/31 09:44:38;;;;;;;3.42;1.25;;;;;;;18.21;75.59;96122.25;5019511;28;20156;-70
2022/05/31 09:47:13;;;;;;;3.85;1.00;;;;;;;18.24;66.88;96120.81;5019963;28;20638;-71
2022/05/31 09:49:45;;;;;;;3.83;1.00;;;;;;;18.95;83.51;96115.63;5020303;28;20270;-71
2022/05/31 09:52:17;;;;;;;4.20;1.20;;;;;;;19.33;60.83;96113.28;5015746;28;20096;-70
2022/05/31 09:58:26;;;;;;;3.13;1.23;;;;;;;18.32;44.57;96125.50;5017580;28;20038;-72
2022/05/31 10:01:11;;;;;;;3.50;1.25;;;;;;;18.58;46.46;96123.81;5017091;28;20055;-72
2022/05/31 10:03:52;;;;;;;4.10;1.17;;;;;;;18.10;55.54;96118.94;5018054;28;20037;-71
2022/05/31 10:06:21;;;;;;;2.17;1.00;;;;;;;17.76;59.98;96115.91;5019737;28;20398;-72
2022/05/31 10:08:49;;;;;;;2.80;1.30;;;;;;;17.85;57.91;96108.66;5018165;28;20048;-72
2022/05/31 10:11:22;;;;;;;4.25;1.40;;;;;;;17.42;70.88;96114.34;4999658;28;20045;-72
2022/05/31 10:14:15;;;;;;;4.97;1.17;;;;;;;17.02;61.96;96115.91;5017997;28;20433;-72
2022/05/31 10:16:42;;;;;;;3.35;1.42;;;;;;;17.28;71.14;96110.88;5019854;28;20041;-72
2022/05/31 10:19:27;;;;;;;4.00;1.60;;;;;;;17.89;92.52;96106.94;5017323;28;20294;-72
2022/05/31 10:21:53;;;;;;;3.92;1.20;;;;;;;18.31;84.64;96107.66;5034374;28;20628;-72
2022/05/31 10:24:39;;;;;;;3.25;1.08;;;;;;;18.70;75.38;96098.91;5020351;28;20473;-72
2022/05/31 10:27:28;;;;;;;3.63;1.75;;;;;;;18.94;75.63;96109.41;5016081;28;20041;-72
2022/05/31 10:30:09;;;;;;;3.00;1.27;;;;;;;18.63;56.84;96110.16;5014045;28;20081;-72
2022/05/31 10:33:19;;;;;;;2.88;1.55;;;;;;;18.62;67.74;96100.41;5008802;28;20041;-72
2022/05/31 10:35:46;;;;;;;5.53;1.50;;;;;;;18.56;66.73;96108.97;5020037;28;20049;-72
2022/05/31 10:38:15;;;;;;;3.92;1.10;;;;;;;18.83;59.97;96116.19;5033657;28;20360;-72
2022/05/31 10:41:00;;;;;;;5.88;1.13;;;;;;;18.94;72.36;96120.25;4323669;28;10000267;-72
2022/05/31 10:43:40;;;;;;;2.85;1.38;;;;;;;18.95;80.58;96113.72;5014166;28;20033;-72
2022/05/31 10:46:27;;;;;;;4.55;1.40;;;;;;;18.97;82.83;96114.22;5018770;28;20067;-71
2022/05/31 10:48:56;;;;;;;3.50;1.50;;;;;;;18.93;89.74;96111.34;5015770;28;20042;-72
2022/05/31 10:51:53;;;;;;;5.30;1.75;;;;;;;19.38;83.29;96103.09;5017326;28;20065;-71
2022/05/31 10:54:25;;;;;;;3.88;1.42;;;;;;;19.79;78.91;96103.91;5032851;28;20041;-72
2022/05/31 10:57:18;;;;;;;6.60;1.50;;;;;;;20.95;68.80;96088.59;5029005;28;20048;-72
2022/05/31 11:00:14;;;;;;;4.65;1.33;;;;;;;20.94;70.32;96097.09;5019499;28;20057;-72
2022/05/31 11:03:02;;;;;;;3.08;1.40;;;;;;;20.62;78.78;96101.13;4997721;28;20064;-72
2022/05/31 11:05:55;;;;;;;4.57;1.45;;;;;;;20.29;83.94;96098.84;5016545;28;20053;-72
2022/05/31 11:11:56;;;;;;;4.55;1.65;;;;;;;19.14;87.77;96118.91;5015422;28;20045;-72
2022/05/31 11:14:41;;;;;;;4.05;1.60;;;;;;;18.99;85.46;96120.16;5012341;28;20076;-72
2022/05/31 11:17:24;;;;;;;8.50;1.70;;;;;;;19.03;86.78;96123.81;5015409;28;20056;-72
2022/05/31 11:19:59;;;;;;;5.18;1.55;;;;;;;18.94;85.59;96125.69;5016039;28;20043;-72
2022/05/31 11:22:24;;;;;;;6.95;1.73;;;;;;;18.82;87.54;96118.09;5016209;28;20568;-72
2022/05/31 11:25:17;;;;;;;6.22;1.75;;;;;;;19.42;84.60;96120.34;5018135;28;20034;-72
2022/05/31 11:28:15;;;;;;;6.90;1.80;;;;;;;19.31;85.85;96115.53;4990486;28;20045;-72
2022/05/31 11:31:07;;;;;;;5.43;1.70;;;;;;;21.22;73.45;96111.09;5013279;28;20084;-72
2022/05/31 11:34:20;;;;;;;6.40;2.03;;;;;;;25.53;44.15;96101.16;5020536;28;20052;-71
2022/05/31 11:36:55;;;;;;;6.00;1.75;;;;;;;28.36;37.50;96080.84;4996376;28;20077;-72
2022/05/31 11:39:23;;;;;;;4.45;1.70;;;;;;;31.01;31.18;96091.03;4996747;28;20041;-72
2022/05/31 11:42:20;;;;;;;5.43;1.90;;;;;;;32.95;25.82;96085.88;5012545;28;20045;-72
2022/05/31 11:45:13;;;;;;;3.20;1.63;;;;;;;32.64;27.55;96092.28;5007378;28;20561;-72
2022/05/31 11:48:18;;;;;;;6.45;1.70;;;;;;;26.42;33.57;96097.78;5012194;28;20128;-72
2022/05/31 11:51:04;;;;;;;4.10;1.80;;;;;;;23.39;44.57;96110.41;5015754;28;20060;-72
2022/05/31 11:53:59;;;;;;;3.88;2.08;;;;;;;23.39;43.45;96111.19;5013798;28;20104;-72
2022/05/31 11:56:42;;;;;;;4.82;2.00;;;;;;;22.97;49.17;96105.88;5011641;28;20364;-72
2022/05/31 11:59:17;;;;;;;3.22;1.52;;;;;;;24.52;40.40;96102.31;5011563;28;20073;-72
2022/05/31 12:02:00;;;;;;;4.63;1.80;;;;;;;27.20;40.60;96085.63;4992082;28;20069;-72
2022/05/31 12:04:52;;;;;;;8.18;1.42;;;;;;;25.97;38.02;96090.06;5013578;28;20496;-72
2022/05/31 12:07:34;;;;;;;5.63;1.58;;;;;;;24.69;37.20;96079.34;5013328;28;20112;-72
2022/05/31 12:10:11;;;;;;;8.15;1.60;;;;;;;24.99;40.33;96083.31;5015822;28;20067;-72
2022/05/31 12:12:39;;;;;;;4.57;1.55;;;;;;;23.40;43.97;96084.69;5015902;28;20460;-72
2022/05/31 12:15:10;;;;;;;5.22;1.60;;;;;;;22.59;40.42;96080.72;4998509;28;20053;-72
2022/05/31 12:17:44;;;;;;;6.97;1.70;;;;;;;22.67;49.24;96075.16;5014204;28;20103;-71
2022/05/31 12:20:21;;;;;;;5.88;1.70;;;;;;;22.87;42.84;96062.63;5011634;28;20076;-71
2022/05/31 12:23:09;;;;;;;2.92;1.40;;;;;;;26.34;40.62;96057.59;5018338;28;20046;-72
2022/05/31 12:25:42;;;;;;;3.97;1.50;;;;;;;26.30;32.02;96054.00;5001240;28;20094;-72
2022/05/31 12:28:25;;;;;;;4.15;1.42;;;;;;;24.16;34.61;96057.47;5011919;28;20144;-72